createdAt,value
2022-11-20T00:00:10.890Z,99612.19
2022-11-20T00:02:37.468Z,99612.44
2022-11-20T00:05:04.167Z,99609.44
2022-11-20T00:07:30.686Z,99615.47
2022-11-20T00:09:57.294Z,99601.13
2022-11-20T00:12:23.709Z,99599.75
2022-11-20T00:14:51.915Z,99599.22
2022-11-20T00:17:18.402Z,99595.59
2022-11-20T00:19:44.840Z,99596.00
2022-11-20T00:22:11.800Z,99597.91
2022-11-20T00:24:42.870Z,99605.13
2022-11-20T00:27:10.339Z,99599.09
2022-11-20T00:29:36.837Z,99608.78
2022-11-20T00:32:03.587Z,99607.28
2022-11-20T00:34:30.424Z,99609.81
2022-11-20T00:36:57.833Z,99613.13
2022-11-20T00:39:24.457Z,99616.22
2022-11-20T00:41:51.239Z,99613.78
2022-11-20T00:44:17.804Z,99627.84
2022-11-20T00:46:44.303Z,99625.63
2022-11-20T00:49:10.806Z,99624.09
2022-11-20T00:51:37.751Z,99632.25
2022-11-20T00:54:04.482Z,99632.97
2022-11-20T00:56:30.944Z,99627.84
2022-11-20T00:59:00.564Z,99622.88
2022-11-20T01:01:27.468Z,99625.13
2022-11-20T01:03:55.584Z,99622.75
2022-11-20T01:06:30.766Z,99637.94
2022-11-20T01:08:59.370Z,99628.03
2022-11-20T01:11:28.827Z,99628.34
2022-11-20T01:13:56.517Z,99635.69
2022-11-20T01:16:28.412Z,99626.41
2022-11-20T01:18:59.049Z,99625.38
2022-11-20T01:21:28.116Z,99623.63
2022-11-20T01:23:54.831Z,99621.34
2022-11-20T01:26:24.560Z,99615.44
2022-11-20T01:28:51.647Z,99624.25
2022-11-20T01:31:25.653Z,99623.56
2022-11-20T01:33:57.661Z,99618.28
2022-11-20T01:36:27.319Z,99623.63
2022-11-20T01:38:59.783Z,99620.16
2022-11-20T01:41:46.753Z,99618.38
2022-11-20T01:44:16.035Z,99618.69
2022-11-20T01:47:03.592Z,99616.19
2022-11-20T01:49:38.891Z,99610.16
2022-11-20T01:52:27.147Z,99609.44
2022-11-20T01:54:58.776Z,99605.31
2022-11-20T01:57:27.093Z,99601.84
2022-11-20T02:00:00.176Z,99598.22
2022-11-20T02:02:26.785Z,99596.34
2022-11-20T02:04:55.804Z,99594.81
2022-11-20T02:07:23.683Z,99595.44
2022-11-20T02:09:56.001Z,99597.84
2022-11-20T02:12:43.802Z,99592.97
2022-11-20T02:15:10.571Z,99593.94
2022-11-20T02:17:37.243Z,99593.03
2022-11-20T02:20:05.369Z,99588.56
2022-11-20T02:22:38.866Z,99590.47
2022-11-20T02:25:07.901Z,99592.69
2022-11-20T02:27:35.171Z,99589.69
2022-11-20T02:30:04.746Z,99583.19
2022-11-20T02:32:34.665Z,99584.41
2022-11-20T02:35:27.201Z,99579.50
2022-11-20T02:37:55.737Z,99580.41
2022-11-20T02:40:23.419Z,99578.06
2022-11-20T02:42:54.084Z,99579.78
2022-11-20T02:45:20.721Z,99575.97
2022-11-20T02:47:47.331Z,99589.06
2022-11-20T02:50:14.070Z,99582.53
2022-11-20T02:52:40.796Z,99586.34
2022-11-20T02:55:07.974Z,99588.34
2022-11-20T02:57:34.678Z,99588.56
2022-11-20T03:00:01.956Z,99584.38
2022-11-20T03:02:32.445Z,99581.81
2022-11-20T03:04:59.203Z,99582.06
2022-11-20T03:07:26.044Z,99579.56
2022-11-20T03:09:52.541Z,99579.69
2022-11-20T03:12:19.067Z,99578.75
2022-11-20T03:14:50.220Z,99578.13
2022-11-20T03:17:19.405Z,99569.53
2022-11-20T03:19:45.970Z,99573.13
2022-11-20T03:22:12.543Z,99566.75
2022-11-20T03:24:39.381Z,99568.63
2022-11-20T03:27:05.837Z,99564.47
2022-11-20T03:29:33.363Z,99567.38
2022-11-20T03:32:00.175Z,99566.78
2022-11-20T03:34:26.724Z,99563.56
2022-11-20T03:36:53.234Z,99562.66
2022-11-20T03:39:20.101Z,99561.16
2022-11-20T03:41:46.797Z,99560.38
2022-11-20T03:44:13.389Z,99569.34
2022-11-20T03:46:40.152Z,99566.84
2022-11-20T03:49:06.690Z,99566.03
2022-11-20T03:51:35.176Z,99565.28
2022-11-20T03:54:08.032Z,99568.06
2022-11-20T03:56:38.298Z,99573.47
2022-11-20T03:59:05.184Z,99570.84
2022-11-20T04:01:36.879Z,99568.34
2022-11-20T04:04:03.942Z,99565.78
2022-11-20T04:06:34.595Z,99558.72
2022-11-20T04:09:01.450Z,99568.25
2022-11-20T04:11:30.073Z,99558.72
2022-11-20T04:13:58.455Z,99556.09
2022-11-20T04:16:26.093Z,99555.06
2022-11-20T04:18:56.847Z,99557.72
2022-11-20T04:21:24.314Z,99551.41
2022-11-20T04:23:51.737Z,99548.97
2022-11-20T04:26:18.179Z,99534.75
2022-11-20T04:28:44.612Z,99541.81
2022-11-20T04:31:22.822Z,99535.91
2022-11-20T04:33:49.426Z,99539.03
2022-11-20T04:36:21.533Z,99530.09
2022-11-20T04:38:57.098Z,99528.28
2022-11-20T04:41:26.954Z,99511.41
2022-11-20T04:44:00.723Z,99525.78
2022-11-20T04:46:28.086Z,99522.78
2022-11-20T04:48:54.525Z,99527.16
2022-11-20T04:51:21.077Z,99521.28
2022-11-20T04:53:47.603Z,99528.19
2022-11-20T04:56:14.645Z,99529.94
2022-11-20T04:58:41.564Z,99535.28
2022-11-20T05:01:14.259Z,99539.81
2022-11-20T05:03:42.625Z,99544.25
2022-11-20T05:06:10.792Z,99547.03
2022-11-20T05:08:37.244Z,99545.44
2022-11-20T05:11:05.796Z,99551.97
2022-11-20T05:13:32.273Z,99549.28
2022-11-20T05:16:06.585Z,99543.59
2022-11-20T05:18:34.664Z,99544.50
2022-11-20T05:21:01.450Z,99540.22
2022-11-20T05:23:30.658Z,99542.19
2022-11-20T05:25:59.416Z,99541.88
2022-11-20T05:28:26.825Z,99537.88
2022-11-20T05:30:53.288Z,99539.75
2022-11-20T05:33:20.055Z,99538.03
2022-11-20T05:35:46.701Z,99533.81
2022-11-20T05:38:13.221Z,99539.22
2022-11-20T05:40:39.691Z,99526.72
2022-11-20T05:43:06.201Z,99525.50
2022-11-20T05:45:32.691Z,99520.84
2022-11-20T05:48:01.160Z,99525.75
2022-11-20T05:50:28.720Z,99529.44
2022-11-20T05:52:55.220Z,99525.22
2022-11-20T05:55:21.751Z,99515.06
2022-11-20T05:57:48.257Z,99526.31
2022-11-20T06:00:15.271Z,99521.38
2022-11-20T06:02:41.753Z,99518.03
2022-11-20T06:05:08.719Z,99520.66
2022-11-20T06:07:35.191Z,99522.50
2022-11-20T06:10:01.666Z,99528.69
2022-11-20T06:12:28.114Z,99516.53
2022-11-20T06:14:54.519Z,99515.69
2022-11-20T06:17:20.933Z,99512.34
2022-11-20T06:19:47.384Z,99515.81
2022-11-20T06:22:13.928Z,99509.97
2022-11-20T06:24:40.352Z,99509.66
2022-11-20T06:27:06.949Z,99505.34
2022-11-20T06:29:34.211Z,99505.28
2022-11-20T06:32:01.050Z,99497.22
2022-11-20T06:34:27.636Z,99501.78
2022-11-20T06:36:54.083Z,99502.69
2022-11-20T06:39:20.952Z,99505.88
2022-11-20T06:41:47.634Z,99508.09
2022-11-20T06:44:14.382Z,99512.25
2022-11-20T06:46:40.767Z,99509.66
2022-11-20T06:49:07.360Z,99501.25
2022-11-20T06:51:33.788Z,99510.31
2022-11-20T06:54:01.883Z,99502.19
2022-11-20T06:56:28.857Z,99502.75
2022-11-20T06:58:55.270Z,99496.88
2022-11-20T07:01:21.661Z,99491.13
2022-11-20T07:03:54.274Z,99493.06
2022-11-20T07:06:21.076Z,99493.06
2022-11-20T07:08:47.999Z,99501.41
2022-11-20T07:11:14.411Z,99497.81
2022-11-20T07:13:41.056Z,99488.34
2022-11-20T07:16:09.199Z,99491.97
2022-11-20T07:18:37.119Z,99494.06
2022-11-20T07:21:05.122Z,99486.06
2022-11-20T07:23:31.610Z,99486.78
2022-11-20T07:25:58.089Z,99489.69
2022-11-20T07:28:24.533Z,99488.78
2022-11-20T07:30:52.338Z,99479.16
2022-11-20T07:33:18.722Z,99473.84
2022-11-20T07:35:46.517Z,99472.03
2022-11-20T07:38:13.023Z,99476.84
2022-11-20T07:40:39.500Z,99482.09
2022-11-20T07:43:06.303Z,99488.94
2022-11-20T07:45:32.684Z,99482.19
2022-11-20T07:47:59.090Z,99488.56
2022-11-20T07:50:25.554Z,99496.09
2022-11-20T07:52:51.991Z,99495.31
2022-11-20T07:55:18.478Z,99489.69
2022-11-20T07:57:45.011Z,99486.63
2022-11-20T08:00:12.664Z,99487.47
2022-11-20T08:02:42.630Z,99482.16
2022-11-20T08:05:10.210Z,99478.47
2022-11-20T08:07:41.414Z,99476.75
2022-11-20T08:10:09.572Z,99482.41
2022-11-20T08:12:54.631Z,99477.22
2022-11-20T08:15:21.340Z,99481.13
2022-11-20T08:18:08.254Z,99471.22
2022-11-20T08:20:35.291Z,99468.56
2022-11-20T08:23:02.882Z,99463.03
2022-11-20T08:25:33.421Z,99469.72
2022-11-20T08:28:02.173Z,99465.91
2022-11-20T08:30:32.100Z,99470.25
2022-11-20T08:33:11.590Z,99463.16
2022-11-20T08:35:39.116Z,99455.09
2022-11-20T08:38:06.170Z,99462.81
2022-11-20T08:40:33.483Z,99458.91
2022-11-20T08:42:59.871Z,99459.88
2022-11-20T08:45:29.699Z,99461.28
2022-11-20T08:48:03.742Z,99474.09
2022-11-20T08:50:32.833Z,99465.28
2022-11-20T08:53:04.696Z,99455.84
2022-11-20T08:55:31.056Z,99450.06
2022-11-20T08:57:57.385Z,99446.09
2022-11-20T09:00:23.888Z,99436.63
2022-11-20T09:02:50.247Z,99433.56
2022-11-20T09:05:16.603Z,99429.25
2022-11-20T09:07:43.101Z,99416.47
2022-11-20T09:10:23.683Z,99419.16
2022-11-20T09:12:52.636Z,99401.38
2022-11-20T09:15:20.024Z,99410.38
2022-11-20T09:17:52.755Z,99400.06
2022-11-20T09:20:19.732Z,99410.53
2022-11-20T09:22:46.125Z,99410.16
2022-11-20T09:25:12.487Z,99409.19
2022-11-20T09:27:38.963Z,99417.06
2022-11-20T09:30:05.851Z,99410.22
2022-11-20T09:32:32.415Z,99417.31
2022-11-20T09:34:58.894Z,99412.63
2022-11-20T09:37:25.295Z,99421.75
2022-11-20T09:39:51.715Z,99415.44
2022-11-20T09:42:34.574Z,99412.81
2022-11-20T09:45:18.241Z,99414.94
2022-11-20T09:48:03.658Z,99410.47
2022-11-20T09:50:37.830Z,99415.00
2022-11-20T09:53:07.205Z,99426.56
2022-11-20T09:55:35.140Z,99409.91
2022-11-20T09:58:01.615Z,99398.81
2022-11-20T10:00:29.178Z,99390.00
2022-11-20T10:03:16.180Z,99398.38
2022-11-20T10:05:48.722Z,99396.81
2022-11-20T10:08:43.040Z,99403.31
2022-11-20T10:11:46.386Z,99397.44
2022-11-20T10:14:12.942Z,99393.72
2022-11-20T10:16:57.762Z,99388.94
2022-11-20T10:19:52.782Z,99395.66
2022-11-20T10:22:28.646Z,99386.19
2022-11-20T10:25:14.853Z,99376.72
2022-11-20T10:27:46.162Z,99379.06
2022-11-20T10:30:15.645Z,99372.41
2022-11-20T10:32:44.658Z,99368.78
2022-11-20T10:35:24.361Z,99372.63
2022-11-20T10:37:56.538Z,99378.47
2022-11-20T10:40:37.141Z,99380.72
2022-11-20T10:43:22.604Z,99383.13
2022-11-20T10:45:56.415Z,99388.00
2022-11-20T10:48:25.128Z,99389.72
2022-11-20T10:51:25.239Z,99392.69
2022-11-20T10:53:54.971Z,99390.47
2022-11-20T10:56:30.344Z,99389.00
2022-11-20T10:59:32.203Z,99377.78
2022-11-20T11:02:01.609Z,99380.28
2022-11-20T11:04:30.058Z,99378.19
2022-11-20T11:07:02.385Z,99375.38
2022-11-20T11:09:36.514Z,99363.38
2022-11-20T11:12:07.920Z,99373.06
2022-11-20T11:14:43.662Z,99364.06
2022-11-20T11:17:28.373Z,99368.59
2022-11-20T11:20:08.087Z,99358.69
2022-11-20T11:22:36.417Z,99359.13
2022-11-20T11:25:03.567Z,99346.00
2022-11-20T11:27:29.949Z,99353.09
2022-11-20T11:30:15.273Z,99344.31
2022-11-20T11:32:41.869Z,99337.53
2022-11-20T11:35:21.764Z,99326.53
2022-11-20T11:37:49.402Z,99320.09
2022-11-20T11:40:23.910Z,99318.34
2022-11-20T11:42:55.649Z,99324.44
2022-11-20T11:45:22.427Z,99323.59
2022-11-20T11:47:49.841Z,99322.50
2022-11-20T11:50:25.313Z,99305.09
2022-11-20T11:53:06.562Z,99318.06
2022-11-20T11:55:41.082Z,99303.44
2022-11-20T11:58:23.945Z,99303.41
2022-11-20T12:01:17.474Z,99306.78
2022-11-20T12:03:45.852Z,99294.91
2022-11-20T12:06:15.084Z,99297.31
2022-11-20T12:09:00.655Z,99295.63
2022-11-20T12:11:47.702Z,99289.03
2022-11-20T12:14:26.425Z,99282.94
2022-11-20T12:16:54.395Z,99284.66
2022-11-20T12:19:21.285Z,99293.66
2022-11-20T12:22:03.377Z,99305.00
2022-11-20T12:24:57.405Z,99302.44
2022-11-20T12:27:52.090Z,99299.69
2022-11-20T12:30:20.324Z,99302.63
2022-11-20T12:33:05.744Z,99301.16
2022-11-20T12:35:56.953Z,99301.25
2022-11-20T12:38:56.674Z,99303.09
2022-11-20T12:42:05.601Z,99300.19
2022-11-20T12:44:53.693Z,99296.22
2022-11-20T12:47:33.313Z,99291.25
2022-11-20T12:50:23.540Z,99302.38
2022-11-20T12:52:58.909Z,99306.47
2022-11-20T12:55:45.172Z,99303.53
2022-11-20T12:58:36.358Z,99299.34
2022-11-20T13:01:44.843Z,99302.59
2022-11-20T13:04:37.164Z,99302.97
2022-11-20T13:07:07.051Z,99300.44
2022-11-20T13:09:43.685Z,99295.97
2022-11-20T13:12:26.415Z,99297.28
2022-11-20T13:15:15.015Z,99293.34
2022-11-20T13:17:52.896Z,99296.22
2022-11-20T13:20:20.008Z,99288.38
2022-11-20T13:22:55.642Z,99284.63
2022-11-20T13:25:32.562Z,99278.50
2022-11-20T13:28:02.102Z,99272.94
2022-11-20T13:30:29.996Z,99276.31
2022-11-20T13:33:00.734Z,99269.06
2022-11-20T13:35:30.684Z,99269.44
2022-11-20T13:38:14.278Z,99260.03
2022-11-20T13:40:57.016Z,99269.06
2022-11-20T13:43:43.975Z,99272.78
2022-11-20T13:46:16.308Z,99266.03
2022-11-20T13:48:45.335Z,99274.06
2022-11-20T13:51:30.698Z,99264.22
2022-11-20T13:54:15.486Z,99271.38
2022-11-20T13:57:19.836Z,99272.91
2022-11-20T13:59:58.094Z,99278.97
2022-11-20T14:02:27.918Z,99278.03
2022-11-20T14:04:58.314Z,99281.59
2022-11-20T14:07:27.604Z,99283.94
2022-11-20T14:09:56.117Z,99288.63
2022-11-20T14:12:28.174Z,99282.09
2022-11-20T14:14:55.494Z,99273.09
2022-11-20T14:17:29.772Z,99279.56
2022-11-20T14:20:00.356Z,99278.03
2022-11-20T14:22:28.093Z,99275.63
2022-11-20T14:25:12.966Z,99275.00
2022-11-20T14:27:41.661Z,99273.16
2022-11-20T14:30:23.398Z,99263.44
2022-11-20T14:32:50.486Z,99264.50
2022-11-20T14:35:27.050Z,99269.53
2022-11-20T14:37:53.979Z,99267.38
2022-11-20T14:40:25.233Z,99265.94
2022-11-20T14:42:51.991Z,99278.88
2022-11-20T14:45:19.730Z,99278.41
2022-11-20T14:47:46.841Z,99267.09
2022-11-20T14:50:28.160Z,99265.13
2022-11-20T14:52:57.003Z,99253.00
2022-11-20T14:55:38.361Z,99250.72
2022-11-20T14:58:07.066Z,99253.69
2022-11-20T15:00:35.937Z,99260.19
2022-11-20T15:03:02.348Z,99255.88
2022-11-20T15:05:49.593Z,99259.88
2022-11-20T15:08:17.300Z,99252.63
2022-11-20T15:10:48.806Z,99250.19
2022-11-20T15:13:28.347Z,99247.22
2022-11-20T15:15:56.768Z,99249.22
2022-11-20T15:18:29.412Z,99244.13
2022-11-20T15:20:57.102Z,99243.81
2022-11-20T15:23:24.356Z,99239.38
2022-11-20T15:25:50.945Z,99237.28
2022-11-20T15:28:23.410Z,99235.97
2022-11-20T15:30:50.655Z,99229.00
2022-11-20T15:33:17.821Z,99228.16
2022-11-20T15:35:45.124Z,99233.34
2022-11-20T15:38:11.759Z,99234.59
2022-11-20T15:40:39.379Z,99235.28
2022-11-20T15:43:13.046Z,99236.31
2022-11-20T15:45:43.196Z,99235.47
2022-11-20T15:48:18.064Z,99234.44
2022-11-20T15:50:53.865Z,99237.28
2022-11-20T15:53:20.281Z,99245.00
2022-11-20T15:55:46.808Z,99241.00
2022-11-20T15:58:13.121Z,99242.53
2022-11-20T16:00:39.712Z,99243.09
2022-11-20T16:03:06.260Z,99245.38
2022-11-20T16:05:32.834Z,99247.22
2022-11-20T16:07:59.340Z,99250.44
2022-11-20T16:10:25.771Z,99239.00
2022-11-20T16:13:11.934Z,99242.34
2022-11-20T16:15:47.473Z,99243.38
2022-11-20T16:18:16.716Z,99248.88
2022-11-20T16:20:43.428Z,99243.72
2022-11-20T16:23:09.911Z,99241.91
2022-11-20T16:25:36.296Z,99241.91
2022-11-20T16:28:03.221Z,99244.75
2022-11-20T16:30:29.722Z,99237.03
2022-11-20T16:32:56.124Z,99246.09
2022-11-20T16:35:22.503Z,99238.81
2022-11-20T16:37:49.607Z,99241.97
2022-11-20T16:40:15.973Z,99246.97
2022-11-20T16:42:42.380Z,99243.66
2022-11-20T16:45:09.202Z,99253.66
2022-11-20T16:47:35.941Z,99252.97
2022-11-20T16:50:03.538Z,99255.63
2022-11-20T16:52:31.137Z,99258.34
2022-11-20T16:54:58.119Z,99254.44
2022-11-20T16:57:25.091Z,99248.09
2022-11-20T16:59:51.650Z,99250.75
2022-11-20T17:02:18.045Z,99239.44
2022-11-20T17:04:44.420Z,99231.44
2022-11-20T17:07:12.367Z,99231.63
2022-11-20T17:09:39.564Z,99241.34
2022-11-20T17:12:06.130Z,99246.88
2022-11-20T17:14:32.486Z,99247.25
2022-11-20T17:16:58.951Z,99244.34
2022-11-20T17:19:25.382Z,99245.94
2022-11-20T17:21:52.126Z,99230.13
2022-11-20T17:24:19.721Z,99231.47
2022-11-20T17:26:46.084Z,99233.81
2022-11-20T17:29:17.562Z,99229.41
2022-11-20T17:31:44.627Z,99226.56
2022-11-20T17:34:13.375Z,99230.53
2022-11-20T17:36:45.044Z,99228.00
2022-11-20T17:39:16.277Z,99224.88
2022-11-20T17:41:43.380Z,99221.03
2022-11-20T17:44:10.824Z,99223.66
2022-11-20T17:46:37.436Z,99223.56
2022-11-20T17:49:04.829Z,99226.19
2022-11-20T17:51:34.866Z,99224.03
2022-11-20T17:54:03.867Z,99218.75
2022-11-20T17:56:50.375Z,99222.69
2022-11-20T17:59:18.597Z,99219.88
2022-11-20T18:01:45.209Z,99214.69
2022-11-20T18:04:12.473Z,99206.81
2022-11-20T18:06:39.328Z,99206.16
2022-11-20T18:09:06.717Z,99204.19
2022-11-20T18:11:38.678Z,99190.25
2022-11-20T18:14:26.162Z,99192.97
2022-11-20T18:17:11.205Z,99198.72
2022-11-20T18:19:47.962Z,99194.94
2022-11-20T18:22:27.325Z,99192.13
2022-11-20T18:24:53.827Z,99185.66
2022-11-20T18:27:21.162Z,99185.09
2022-11-20T18:29:52.343Z,99195.41
2022-11-20T18:32:21.827Z,99198.53
2022-11-20T18:34:48.442Z,99201.34
2022-11-20T18:37:16.350Z,99189.94
2022-11-20T18:39:43.243Z,99199.38
2022-11-20T18:42:34.185Z,99192.22
2022-11-20T18:45:01.436Z,99189.09
2022-11-20T18:47:30.772Z,99191.75
2022-11-20T18:49:59.122Z,99195.03
2022-11-20T18:52:28.226Z,99192.13
2022-11-20T18:54:55.228Z,99189.09
2022-11-20T18:57:26.761Z,99184.78
2022-11-20T18:59:54.462Z,99175.34
2022-11-20T19:02:21.519Z,99186.06
2022-11-20T19:04:48.566Z,99178.44
2022-11-20T19:07:15.810Z,99177.81
2022-11-20T19:09:44.260Z,99180.03
2022-11-20T19:12:12.177Z,99182.88
2022-11-20T19:14:38.623Z,99177.41
2022-11-20T19:17:06.709Z,99174.44
2022-11-20T19:19:36.577Z,99173.38
2022-11-20T19:22:04.087Z,99167.38
2022-11-20T19:24:30.707Z,99173.88
2022-11-20T19:26:57.153Z,99169.91
2022-11-20T19:29:26.071Z,99166.03
2022-11-20T19:31:53.629Z,99160.03
2022-11-20T19:34:20.098Z,99151.47
2022-11-20T19:36:46.665Z,99144.50
2022-11-20T19:39:13.176Z,99144.88
2022-11-20T19:41:40.717Z,99151.72
2022-11-20T19:44:13.905Z,99153.59
2022-11-20T19:46:40.963Z,99145.97
2022-11-20T19:49:13.507Z,99151.13
2022-11-20T19:51:44.770Z,99150.47
2022-11-20T19:54:11.423Z,99146.06
2022-11-20T19:56:38.169Z,99158.25
2022-11-20T19:59:04.986Z,99149.41
2022-11-20T20:01:31.982Z,99149.00
2022-11-20T20:04:02.445Z,99146.31
2022-11-20T20:06:29.732Z,99140.44
2022-11-20T20:08:58.384Z,99139.03
2022-11-20T20:11:26.932Z,99137.72
2022-11-20T20:13:53.639Z,99137.00
2022-11-20T20:16:23.215Z,99140.63
2022-11-20T20:18:49.874Z,99142.25
2022-11-20T20:21:18.683Z,99139.00
2022-11-20T20:23:45.496Z,99125.72
2022-11-20T20:26:12.283Z,99121.72
2022-11-20T20:28:39.053Z,99132.66
2022-11-20T20:31:10.634Z,99119.88
2022-11-20T20:33:38.295Z,99108.03
2022-11-20T20:36:06.382Z,99110.00
2022-11-20T20:38:33.247Z,99106.66
2022-11-20T20:40:59.716Z,99104.59
2022-11-20T20:43:26.387Z,99095.84
2022-11-20T20:45:55.280Z,99097.50
2022-11-20T20:48:23.656Z,99094.59
2022-11-20T20:50:57.952Z,99093.56
2022-11-20T20:53:27.424Z,99098.97
2022-11-20T20:55:58.699Z,99108.13
2022-11-20T20:58:25.678Z,99102.91
2022-11-20T21:00:52.599Z,99094.06
2022-11-20T21:03:19.259Z,99101.41
2022-11-20T21:05:46.178Z,99095.38
2022-11-20T21:08:21.549Z,99086.53
2022-11-20T21:10:56.362Z,99083.34
2022-11-20T21:13:23.618Z,99086.13
2022-11-20T21:15:51.124Z,99094.34
2022-11-20T21:18:19.198Z,99076.66
2022-11-20T21:21:04.686Z,99071.88
2022-11-20T21:23:31.524Z,99055.47
2022-11-20T21:26:01.390Z,99049.03
2022-11-20T21:28:28.856Z,99043.66
2022-11-20T21:31:12.721Z,99033.22
2022-11-20T21:33:44.048Z,99024.22
2022-11-20T21:36:13.084Z,99027.16
2022-11-20T21:38:40.295Z,99011.16
2022-11-20T21:41:08.477Z,99016.81
2022-11-20T21:43:35.633Z,99008.59
2022-11-20T21:46:04.584Z,99004.09
2022-11-20T21:48:31.862Z,98997.28
2022-11-20T21:51:06.474Z,98992.94
2022-11-20T21:53:33.235Z,98991.03
2022-11-20T21:55:59.689Z,98983.97
2022-11-20T21:58:26.460Z,98979.31
2022-11-20T22:00:52.899Z,98989.34
2022-11-20T22:03:19.302Z,98978.91
2022-11-20T22:05:59.011Z,98985.34
2022-11-20T22:08:26.386Z,98983.56
2022-11-20T22:10:57.527Z,98981.00
2022-11-20T22:13:44.297Z,98973.00
2022-11-20T22:16:10.813Z,98972.59
2022-11-20T22:18:45.099Z,98971.31
2022-11-20T22:21:12.662Z,98960.97
2022-11-20T22:23:39.404Z,98965.41
2022-11-20T22:26:10.765Z,98950.63
2022-11-20T22:28:37.865Z,98953.78
2022-11-20T22:31:07.096Z,98949.75
2022-11-20T22:33:34.700Z,98940.91
2022-11-20T22:36:08.237Z,98932.38
2022-11-20T22:38:39.255Z,98941.47
2022-11-20T22:41:08.833Z,98931.53
2022-11-20T22:43:35.872Z,98931.41
2022-11-20T22:46:07.900Z,98931.06
2022-11-20T22:48:35.755Z,98934.06
2022-11-20T22:51:07.517Z,98920.66
2022-11-20T22:53:34.648Z,98917.69
2022-11-20T22:56:01.826Z,98919.81
2022-11-20T22:58:29.812Z,98914.53
2022-11-20T23:00:57.187Z,98918.97
2022-11-20T23:03:23.621Z,98912.50
2022-11-20T23:05:50.250Z,98909.31
2022-11-20T23:08:16.940Z,98902.03
2022-11-20T23:10:43.297Z,98901.72
2022-11-20T23:13:09.736Z,98891.72
2022-11-20T23:15:36.059Z,98892.16
2022-11-20T23:18:02.457Z,98885.13
2022-11-20T23:20:28.774Z,98880.44
2022-11-20T23:22:55.207Z,98876.81
2022-11-20T23:25:21.575Z,98870.78
2022-11-20T23:27:47.936Z,98869.13
2022-11-20T23:30:14.659Z,98867.63
2022-11-20T23:32:41.090Z,98859.38
2022-11-20T23:35:09.072Z,98860.84
2022-11-20T23:37:35.445Z,98857.00
2022-11-20T23:40:01.835Z,98861.31
2022-11-20T23:42:28.468Z,98852.81
2022-11-20T23:44:56.091Z,98846.91
2022-11-20T23:47:22.460Z,98843.44
2022-11-20T23:49:48.803Z,98833.94
2022-11-20T23:52:15.174Z,98831.91
2022-11-20T23:54:41.510Z,98826.44
2022-11-20T23:57:10.178Z,98823.50
2022-11-20T23:59:36.572Z,98816.84
